createdAt,value
2022-08-11T00:00:07.678Z,0.0
2022-08-11T00:05:08.396Z,0.0
2022-08-11T00:10:08.107Z,0.0
2022-08-11T00:15:07.797Z,0.0
2022-08-11T00:20:12.423Z,0.0
2022-08-11T00:25:07.779Z,0.0
2022-08-11T00:30:08.482Z,0.0
2022-08-11T00:35:54.254Z,0.0
2022-08-11T00:40:08.131Z,0.0
2022-08-11T00:45:13.173Z,0.0
2022-08-11T00:50:07.867Z,0.0
2022-08-11T00:55:08.552Z,0.0
2022-08-11T01:00:08.296Z,0.0
2022-08-11T01:05:17.983Z,0.0
2022-08-11T01:10:07.728Z,0.0
2022-08-11T01:15:08.413Z,0.0
2022-08-11T01:20:46.415Z,0.0
2022-08-11T01:25:08.515Z,0.0
2022-08-11T01:30:08.218Z,0.0
2022-08-11T01:35:07.900Z,0.0
2022-08-11T01:40:08.585Z,0.0
2022-08-11T01:45:08.282Z,0.0
2022-08-11T01:50:10.698Z,0.0
2022-08-11T01:55:08.577Z,0.0
2022-08-11T02:00:08.254Z,0.0
2022-08-11T02:05:17.915Z,0.0
2022-08-11T02:10:08.629Z,0.0
2022-08-11T02:15:08.452Z,0.0
2022-08-11T02:20:08.161Z,0.0
2022-08-11T02:25:07.843Z,0.0
2022-08-11T02:30:08.540Z,0.0
2022-08-11T02:35:08.260Z,0.0
2022-08-11T02:40:07.940Z,0.0
2022-08-11T02:45:10.258Z,0.0
2022-08-11T02:50:08.078Z,0.0
2022-08-11T02:55:07.775Z,0.0
2022-08-11T03:00:08.230Z,0.0
2022-08-11T03:05:07.901Z,0.0
2022-08-11T03:10:08.612Z,0.0
2022-08-11T03:15:08.299Z,0.0
2022-08-11T03:20:17.963Z,0.0
2022-08-11T03:25:11.096Z,0.0
2022-08-11T03:30:08.672Z,0.0
2022-08-11T03:35:08.374Z,0.0
2022-08-11T03:40:18.057Z,0.0
2022-08-11T03:45:07.725Z,0.0
2022-08-11T03:50:08.387Z,0.0
2022-08-11T03:55:08.057Z,0.0
2022-08-11T04:00:17.753Z,0.0
2022-08-11T04:05:02.673Z,0.0
2022-08-11T04:10:02.566Z,0.0
2022-08-11T04:15:06.435Z,0.0
2022-08-11T04:20:12.332Z,0.0
2022-08-11T04:25:02.176Z,0.0
2022-08-11T04:30:05.221Z,0.0
2022-08-11T04:35:02.568Z,0.0
2022-08-11T04:40:12.422Z,0.0
2022-08-11T04:45:02.261Z,0.0
2022-08-11T04:50:02.045Z,0.0
2022-08-11T04:55:11.846Z,0.0
2022-08-11T05:00:02.662Z,0.0
2022-08-11T05:05:02.486Z,0.0
2022-08-11T05:10:02.291Z,0.0
2022-08-11T05:15:02.149Z,0.0
2022-08-11T05:20:01.972Z,0.0
2022-08-11T05:25:01.773Z,0.0
2022-08-11T05:30:02.597Z,0.0
2022-08-11T05:35:02.480Z,0.0
2022-08-11T05:40:02.411Z,0.0
2022-08-11T05:45:02.393Z,0.0
2022-08-11T05:50:02.088Z,0.0
2022-08-11T05:55:06.921Z,0.0
2022-08-11T06:00:02.057Z,0.0
2022-08-11T06:05:01.890Z,0.0
2022-08-11T06:10:02.661Z,0.0
2022-08-11T06:15:02.498Z,0.0
2022-08-11T06:20:07.044Z,0.0
2022-08-11T06:25:02.434Z,0.0
2022-08-11T06:30:02.273Z,0.0
2022-08-11T06:35:02.110Z,0.0
2022-08-11T06:40:01.940Z,0.0
2022-08-11T06:45:01.942Z,0.0
2022-08-11T06:50:02.952Z,0.0
2022-08-11T06:55:01.826Z,0.0
2022-08-11T07:00:03.224Z,0.0
2022-08-11T07:05:02.131Z,0.0
2022-08-11T07:10:01.984Z,0.0
2022-08-11T07:15:01.916Z,0.0
2022-08-11T07:20:02.761Z,0.0
2022-08-11T07:25:12.564Z,0.0
2022-08-11T07:30:02.421Z,0.0
2022-08-11T07:35:02.448Z,0.0
2022-08-11T07:40:02.331Z,1.1
2022-08-11T07:45:02.297Z,1.1
2022-08-11T07:50:02.455Z,1.2
2022-08-11T07:55:02.392Z,1.2
2022-08-11T08:00:04.554Z,0.0
2022-08-11T08:05:12.912Z,0.0
2022-08-11T08:10:02.827Z,0.0
2022-08-11T08:15:02.744Z,0.0
2022-08-11T08:20:02.569Z,0.0
2022-08-11T08:25:02.322Z,0.0
2022-08-11T08:30:02.250Z,0.0
2022-08-11T08:35:02.017Z,0.0
2022-08-11T08:40:01.827Z,0.0
2022-08-11T08:45:02.650Z,0.0
2022-08-11T08:50:02.375Z,0.0
2022-08-11T08:55:02.222Z,0.0
2022-08-11T09:00:02.052Z,0.0
2022-08-11T09:05:01.874Z,0.0
2022-08-11T09:10:01.799Z,0.0
2022-08-11T09:15:02.778Z,0.0
2022-08-11T09:20:02.709Z,0.0
2022-08-11T09:25:02.578Z,0.0
2022-08-11T09:30:02.582Z,0.0
2022-08-11T09:35:02.490Z,0.0
2022-08-11T09:40:02.719Z,0.0
2022-08-11T09:45:02.613Z,0.0
2022-08-11T09:50:02.729Z,0.0
2022-08-11T09:55:02.654Z,0.0
2022-08-11T10:00:12.559Z,0.0
2022-08-11T10:05:12.413Z,0.0
2022-08-11T10:10:02.222Z,0.0
2022-08-11T10:15:01.963Z,0.0
2022-08-11T10:20:04.066Z,0.0
2022-08-11T10:25:02.383Z,0.0
2022-08-11T10:30:02.223Z,0.0
2022-08-11T10:35:02.043Z,1.0
2022-08-11T10:40:01.831Z,0.0
2022-08-11T10:45:02.698Z,1.3
2022-08-11T10:50:02.529Z,0.0
2022-08-11T10:55:02.262Z,0.0
2022-08-11T11:00:02.408Z,0.0
2022-08-11T11:05:02.328Z,1.6
2022-08-11T11:10:02.140Z,1.6
2022-08-11T11:15:01.982Z,0.0
2022-08-11T11:20:01.729Z,0.0
2022-08-11T11:25:02.470Z,0.0
2022-08-11T11:30:02.218Z,0.0
2022-08-11T11:35:12.137Z,0.0
2022-08-11T11:40:01.873Z,0.0
2022-08-11T11:45:02.645Z,0.0
2022-08-11T11:50:02.347Z,1.2
2022-08-11T11:55:02.198Z,0.0
2022-08-11T12:00:01.997Z,0.0
2022-08-11T12:05:02.040Z,1.4
2022-08-11T12:10:01.914Z,1.4
2022-08-11T12:15:02.966Z,0.0
2022-08-11T12:20:01.903Z,0.0
2022-08-11T12:25:02.627Z,0.0
2022-08-11T12:30:02.619Z,0.0
2022-08-11T12:35:02.412Z,0.0
2022-08-11T12:40:16.528Z,0.0
2022-08-11T12:45:02.815Z,0.0
2022-08-11T12:50:05.444Z,0.0
2022-08-11T12:55:13.507Z,0.0
2022-08-11T13:00:01.783Z,0.0
2022-08-11T13:05:02.681Z,1.3
2022-08-11T13:10:03.053Z,1.3
2022-08-11T13:15:01.897Z,0.0
2022-08-11T13:20:02.206Z,0.0
2022-08-11T13:25:02.085Z,0.0
2022-08-11T13:30:01.866Z,2.0
2022-08-11T13:35:02.743Z,1.1
2022-08-11T13:40:02.248Z,1.0
2022-08-11T13:45:01.999Z,0.0
2022-08-11T13:50:01.804Z,0.0
2022-08-11T13:55:02.590Z,0.0
2022-08-11T14:00:02.399Z,1.2
2022-08-11T14:05:02.310Z,1.2
2022-08-11T14:10:02.043Z,1.0
2022-08-11T14:15:07.615Z,1.0
2022-08-11T14:20:02.116Z,0.0
2022-08-11T14:25:02.584Z,2.0
2022-08-11T14:30:02.637Z,2.1
2022-08-11T14:35:02.564Z,0.0
2022-08-11T14:40:03.930Z,2.1
2022-08-11T14:45:12.195Z,2.1
2022-08-11T14:50:11.422Z,0.0
2022-08-11T14:55:02.373Z,0.0
2022-08-11T15:00:02.421Z,2.2
2022-08-11T15:05:02.286Z,2.2
2022-08-11T15:10:13.765Z,1.7
2022-08-11T15:15:01.970Z,1.7
2022-08-11T15:20:01.936Z,0.0
2022-08-11T15:25:02.761Z,0.0
2022-08-11T15:30:02.591Z,0.0
2022-08-11T15:35:03.994Z,0.0
2022-08-11T15:40:30.099Z,1.8
2022-08-11T15:45:04.368Z,1.8
2022-08-11T15:50:11.533Z,1.8
2022-08-11T15:55:02.415Z,1.8
2022-08-11T16:00:02.228Z,1.3
2022-08-11T16:05:02.101Z,1.3
2022-08-11T16:10:09.523Z,1.7
2022-08-11T16:15:02.573Z,1.7
2022-08-11T16:20:02.573Z,1.7
2022-08-11T16:27:06.118Z,1.6
2022-08-11T16:30:02.450Z,1.6
2022-08-11T16:35:02.237Z,1.7
2022-08-11T16:40:02.136Z,2.9
2022-08-11T16:45:02.062Z,2.9
2022-08-11T16:50:01.775Z,1.1
2022-08-11T16:55:02.691Z,1.1
2022-08-11T17:00:02.597Z,1.2
2022-08-11T17:05:02.351Z,1.2
2022-08-11T17:10:02.175Z,1.7
2022-08-11T17:15:01.973Z,1.7
2022-08-11T17:20:41.259Z,0.0
2022-08-11T17:25:02.690Z,0.0
2022-08-11T17:30:02.582Z,1.4
2022-08-11T17:35:12.402Z,1.4
2022-08-11T17:40:02.166Z,1.3
2022-08-11T17:45:02.187Z,1.3
2022-08-11T17:50:17.189Z,1.2
2022-08-11T17:55:02.206Z,1.2
2022-08-11T18:00:01.900Z,1.3
2022-08-11T18:05:02.755Z,1.3
2022-08-11T18:10:12.606Z,0.0
2022-08-11T18:15:02.434Z,0.0
2022-08-11T18:20:02.254Z,1.1
2022-08-11T18:25:02.106Z,1.1
2022-08-11T18:30:01.994Z,0.0
2022-08-11T18:35:11.946Z,0.0
2022-08-11T18:40:02.035Z,0.0
2022-08-11T18:45:01.882Z,0.0
2022-08-11T18:50:04.978Z,0.0
2022-08-11T18:55:02.307Z,0.0
2022-08-11T19:00:02.223Z,0.0
2022-08-11T19:05:02.066Z,0.0
2022-08-11T19:10:01.973Z,0.0
2022-08-11T19:15:01.835Z,0.0
2022-08-11T19:20:02.680Z,0.0
2022-08-11T19:25:12.523Z,0.0
2022-08-11T19:30:12.797Z,0.0
2022-08-11T19:35:01.784Z,0.0
2022-08-11T19:40:02.538Z,0.0
2022-08-11T19:45:02.155Z,0.0
2022-08-11T19:50:11.662Z,0.0
2022-08-11T19:55:01.788Z,0.0
2022-08-11T20:00:02.751Z,0.0
2022-08-11T20:05:02.584Z,0.0
2022-08-11T20:10:06.145Z,0.0
2022-08-11T20:15:02.554Z,0.0
2022-08-11T20:20:02.670Z,0.0
2022-08-11T20:25:02.678Z,0.0
2022-08-11T20:30:02.610Z,0.0
2022-08-11T20:35:08.288Z,0.0
2022-08-11T20:40:07.976Z,0.0
2022-08-11T20:45:17.687Z,0.0
2022-08-11T20:50:08.359Z,0.0
2022-08-11T20:55:10.522Z,0.0
2022-08-11T21:00:07.796Z,0.0
2022-08-11T21:05:07.731Z,0.0
2022-08-11T21:10:23.411Z,0.0
2022-08-11T21:15:07.903Z,0.0
2022-08-11T21:20:11.897Z,0.0
2022-08-11T21:25:08.221Z,0.0
2022-08-11T21:30:07.922Z,0.0
2022-08-11T21:35:18.607Z,0.0
2022-08-11T21:40:08.296Z,0.0
2022-08-11T21:45:08.003Z,0.0
2022-08-11T21:50:07.717Z,0.0
2022-08-11T21:55:08.417Z,0.0
2022-08-11T22:00:13.821Z,0.0
2022-08-11T22:05:08.463Z,0.0
2022-08-11T22:10:40.394Z,0.0
2022-08-11T22:15:08.302Z,0.0
2022-08-11T22:20:07.973Z,0.0
2022-08-11T22:25:16.010Z,0.0
2022-08-11T22:30:08.072Z,0.0
2022-08-11T22:35:07.747Z,0.0
2022-08-11T22:40:08.496Z,0.0
2022-08-11T22:45:08.238Z,0.0
2022-08-11T22:50:07.954Z,0.0
2022-08-11T22:55:17.671Z,0.0
2022-08-11T23:01:00.485Z,0.0
2022-08-11T23:05:08.362Z,0.0
2022-08-11T23:10:08.073Z,0.0
2022-08-11T23:15:07.786Z,0.0
2022-08-11T23:20:28.386Z,0.0
2022-08-11T23:25:08.321Z,0.0
2022-08-11T23:30:08.333Z,0.0
2022-08-11T23:35:38.337Z,0.0
2022-08-11T23:40:08.326Z,0.0
2022-08-11T23:45:09.552Z,0.0
2022-08-11T23:50:08.461Z,0.0
2022-08-11T23:55:08.122Z,0.0
